sensor_id;sensor_type;location;lat;lon;timestamp;P1;durP1;ratioP1;P2;durP2;ratioP2
65853;SDS011;52627;48.838;2.402;2023-12-20T00:01:12;6.00;;;4.40;;
65853;SDS011;52627;48.838;2.402;2023-12-20T00:03:39;7.90;;;4.30;;
65853;SDS011;52627;48.838;2.402;2023-12-20T00:06:09;6.20;;;4.60;;
65853;SDS011;52627;48.838;2.402;2023-12-20T00:08:37;7.90;;;4.70;;
65853;SDS011;52627;48.838;2.402;2023-12-20T00:11:04;7.70;;;5.70;;
65853;SDS011;52627;48.838;2.402;2023-12-20T00:13:31;10.60;;;5.50;;
65853;SDS011;52627;48.838;2.402;2023-12-20T00:15:58;7.50;;;5.20;;
65853;SDS011;52627;48.838;2.402;2023-12-20T00:18:25;7.70;;;5.20;;
65853;SDS011;52627;48.838;2.402;2023-12-20T00:20:51;7.80;;;5.10;;
65853;SDS011;52627;48.838;2.402;2023-12-20T00:23:18;7.40;;;5.00;;
65853;SDS011;52627;48.838;2.402;2023-12-20T00:25:45;7.80;;;5.30;;
65853;SDS011;52627;48.838;2.402;2023-12-20T00:28:12;8.00;;;4.80;;
65853;SDS011;52627;48.838;2.402;2023-12-20T00:30:39;7.80;;;5.20;;
65853;SDS011;52627;48.838;2.402;2023-12-20T00:33:06;8.70;;;4.70;;
65853;SDS011;52627;48.838;2.402;2023-12-20T00:35:33;8.30;;;5.20;;
65853;SDS011;52627;48.838;2.402;2023-12-20T00:37:59;8.20;;;4.10;;
65853;SDS011;52627;48.838;2.402;2023-12-20T00:40:26;9.00;;;3.40;;
65853;SDS011;52627;48.838;2.402;2023-12-20T00:42:53;9.00;;;3.40;;
65853;SDS011;52627;48.838;2.402;2023-12-20T00:45:20;7.30;;;3.10;;
65853;SDS011;52627;48.838;2.402;2023-12-20T00:47:47;9.40;;;3.20;;
65853;SDS011;52627;48.838;2.402;2023-12-20T00:50:14;9.90;;;2.70;;
65853;SDS011;52627;48.838;2.402;2023-12-20T00:52:41;7.40;;;2.60;;
65853;SDS011;52627;48.838;2.402;2023-12-20T00:55:08;8.90;;;3.10;;
65853;SDS011;52627;48.838;2.402;2023-12-20T00:57:35;6.90;;;1.80;;
65853;SDS011;52627;48.838;2.402;2023-12-20T01:00:02;5.60;;;1.90;;
65853;SDS011;52627;48.838;2.402;2023-12-20T01:02:29;5.80;;;1.60;;
65853;SDS011;52627;48.838;2.402;2023-12-20T01:04:56;4.60;;;2.10;;
65853;SDS011;52627;48.838;2.402;2023-12-20T01:07:23;7.90;;;1.90;;
65853;SDS011;52627;48.838;2.402;2023-12-20T01:09:49;8.30;;;1.40;;
65853;SDS011;52627;48.838;2.402;2023-12-20T01:12:16;5.50;;;1.60;;
65853;SDS011;52627;48.838;2.402;2023-12-20T01:14:43;5.30;;;1.40;;
65853;SDS011;52627;48.838;2.402;2023-12-20T01:17:10;7.80;;;1.70;;
65853;SDS011;52627;48.838;2.402;2023-12-20T01:19:37;5.70;;;1.70;;
65853;SDS011;52627;48.838;2.402;2023-12-20T01:22:04;5.50;;;1.70;;
65853;SDS011;52627;48.838;2.402;2023-12-20T01:24:31;5.40;;;1.40;;
65853;SDS011;52627;48.838;2.402;2023-12-20T01:26:58;7.70;;;1.50;;
65853;SDS011;52627;48.838;2.402;2023-12-20T01:29:25;5.30;;;1.90;;
65853;SDS011;52627;48.838;2.402;2023-12-20T01:31:52;8.80;;;1.70;;
65853;SDS011;52627;48.838;2.402;2023-12-20T01:34:18;6.50;;;1.70;;
65853;SDS011;52627;48.838;2.402;2023-12-20T01:36:46;5.20;;;1.90;;
65853;SDS011;52627;48.838;2.402;2023-12-20T01:39:13;11.70;;;1.90;;
65853;SDS011;52627;48.838;2.402;2023-12-20T01:41:54;4.90;;;1.70;;
65853;SDS011;52627;48.838;2.402;2023-12-20T01:44:21;8.40;;;2.40;;
65853;SDS011;52627;48.838;2.402;2023-12-20T01:46:48;7.00;;;1.90;;
65853;SDS011;52627;48.838;2.402;2023-12-20T01:49:15;7.90;;;2.40;;
65853;SDS011;52627;48.838;2.402;2023-12-20T01:51:43;6.30;;;1.60;;
65853;SDS011;52627;48.838;2.402;2023-12-20T01:54:10;7.00;;;1.40;;
65853;SDS011;52627;48.838;2.402;2023-12-20T01:56:37;8.40;;;2.10;;
65853;SDS011;52627;48.838;2.402;2023-12-20T01:59:05;10.70;;;2.10;;
65853;SDS011;52627;48.838;2.402;2023-12-20T02:01:33;7.50;;;2.00;;
65853;SDS011;52627;48.838;2.402;2023-12-20T02:04:01;7.20;;;1.80;;
65853;SDS011;52627;48.838;2.402;2023-12-20T02:06:33;8.20;;;1.60;;
65853;SDS011;52627;48.838;2.402;2023-12-20T02:09:00;5.50;;;1.40;;
65853;SDS011;52627;48.838;2.402;2023-12-20T02:11:27;8.60;;;2.10;;
65853;SDS011;52627;48.838;2.402;2023-12-20T02:13:55;7.80;;;1.60;;
65853;SDS011;52627;48.838;2.402;2023-12-20T02:16:22;5.30;;;1.70;;
65853;SDS011;52627;48.838;2.402;2023-12-20T02:18:49;6.40;;;2.00;;
65853;SDS011;52627;48.838;2.402;2023-12-20T02:21:16;5.70;;;1.50;;
65853;SDS011;52627;48.838;2.402;2023-12-20T02:23:43;7.80;;;1.60;;
65853;SDS011;52627;48.838;2.402;2023-12-20T02:26:10;7.90;;;1.90;;
65853;SDS011;52627;48.838;2.402;2023-12-20T02:28:37;4.20;;;1.40;;
65853;SDS011;52627;48.838;2.402;2023-12-20T02:31:04;8.30;;;1.90;;
65853;SDS011;52627;48.838;2.402;2023-12-20T02:33:31;10.20;;;1.60;;
65853;SDS011;52627;48.838;2.402;2023-12-20T02:35:58;5.50;;;1.50;;
65853;SDS011;52627;48.838;2.402;2023-12-20T02:38:25;6.80;;;2.00;;
65853;SDS011;52627;48.838;2.402;2023-12-20T02:40:52;6.50;;;1.40;;
65853;SDS011;52627;48.838;2.402;2023-12-20T02:43:18;5.50;;;1.40;;
65853;SDS011;52627;48.838;2.402;2023-12-20T02:45:45;6.90;;;1.50;;
65853;SDS011;52627;48.838;2.402;2023-12-20T02:48:12;7.10;;;1.30;;
65853;SDS011;52627;48.838;2.402;2023-12-20T02:50:39;8.80;;;2.00;;
65853;SDS011;52627;48.838;2.402;2023-12-20T02:53:06;7.40;;;1.70;;
65853;SDS011;52627;48.838;2.402;2023-12-20T02:55:32;8.20;;;1.50;;
65853;SDS011;52627;48.838;2.402;2023-12-20T02:57:59;6.70;;;1.90;;
65853;SDS011;52627;48.838;2.402;2023-12-20T03:00:26;6.20;;;1.30;;
65853;SDS011;52627;48.838;2.402;2023-12-20T03:02:53;5.70;;;1.30;;
65853;SDS011;52627;48.838;2.402;2023-12-20T03:05:19;8.00;;;1.20;;
65853;SDS011;52627;48.838;2.402;2023-12-20T03:07:47;10.00;;;1.80;;
65853;SDS011;52627;48.838;2.402;2023-12-20T03:10:14;7.90;;;2.10;;
65853;SDS011;52627;48.838;2.402;2023-12-20T03:12:50;6.70;;;1.50;;
65853;SDS011;52627;48.838;2.402;2023-12-20T03:15:17;7.10;;;1.30;;
65853;SDS011;52627;48.838;2.402;2023-12-20T03:17:43;10.30;;;1.50;;
65853;SDS011;52627;48.838;2.402;2023-12-20T03:20:11;7.30;;;1.40;;
65853;SDS011;52627;48.838;2.402;2023-12-20T03:22:38;7.10;;;1.80;;
65853;SDS011;52627;48.838;2.402;2023-12-20T03:25:05;9.10;;;2.10;;
65853;SDS011;52627;48.838;2.402;2023-12-20T03:27:32;6.50;;;1.70;;
65853;SDS011;52627;48.838;2.402;2023-12-20T03:29:59;6.40;;;1.50;;
65853;SDS011;52627;48.838;2.402;2023-12-20T03:32:26;6.20;;;1.50;;
65853;SDS011;52627;48.838;2.402;2023-12-20T03:34:53;6.40;;;1.40;;
65853;SDS011;52627;48.838;2.402;2023-12-20T03:37:21;6.90;;;1.90;;
65853;SDS011;52627;48.838;2.402;2023-12-20T03:39:48;6.80;;;1.70;;
65853;SDS011;52627;48.838;2.402;2023-12-20T03:42:15;7.70;;;1.50;;
65853;SDS011;52627;48.838;2.402;2023-12-20T03:44:42;8.90;;;1.60;;
65853;SDS011;52627;48.838;2.402;2023-12-20T03:47:09;8.70;;;1.90;;
65853;SDS011;52627;48.838;2.402;2023-12-20T03:49:35;6.90;;;1.80;;
65853;SDS011;52627;48.838;2.402;2023-12-20T03:52:04;6.40;;;1.30;;
65853;SDS011;52627;48.838;2.402;2023-12-20T03:54:32;5.80;;;1.60;;
65853;SDS011;52627;48.838;2.402;2023-12-20T03:56:59;8.20;;;1.70;;
65853;SDS011;52627;48.838;2.402;2023-12-20T03:59:26;6.30;;;1.60;;
65853;SDS011;52627;48.838;2.402;2023-12-20T04:01:53;9.60;;;1.50;;
65853;SDS011;52627;48.838;2.402;2023-12-20T04:04:20;7.90;;;1.70;;
65853;SDS011;52627;48.838;2.402;2023-12-20T04:06:47;6.30;;;1.40;;
65853;SDS011;52627;48.838;2.402;2023-12-20T04:09:14;7.70;;;1.70;;
65853;SDS011;52627;48.838;2.402;2023-12-20T04:11:41;11.80;;;1.80;;
65853;SDS011;52627;48.838;2.402;2023-12-20T04:14:07;5.80;;;1.30;;
65853;SDS011;52627;48.838;2.402;2023-12-20T04:16:34;8.50;;;1.70;;
65853;SDS011;52627;48.838;2.402;2023-12-20T04:19:01;8.20;;;1.80;;
65853;SDS011;52627;48.838;2.402;2023-12-20T04:21:29;8.20;;;1.50;;
65853;SDS011;52627;48.838;2.402;2023-12-20T04:23:55;9.00;;;1.70;;
65853;SDS011;52627;48.838;2.402;2023-12-20T04:26:22;4.90;;;1.60;;
65853;SDS011;52627;48.838;2.402;2023-12-20T04:28:49;8.40;;;1.60;;
65853;SDS011;52627;48.838;2.402;2023-12-20T04:31:19;6.30;;;1.70;;
65853;SDS011;52627;48.838;2.402;2023-12-20T04:33:46;7.60;;;1.70;;
65853;SDS011;52627;48.838;2.402;2023-12-20T04:36:12;7.00;;;1.50;;
65853;SDS011;52627;48.838;2.402;2023-12-20T04:38:39;6.50;;;2.00;;
65853;SDS011;52627;48.838;2.402;2023-12-20T04:41:06;8.30;;;1.80;;
65853;SDS011;52627;48.838;2.402;2023-12-20T04:43:33;7.70;;;2.00;;
65853;SDS011;52627;48.838;2.402;2023-12-20T04:45:59;5.70;;;1.50;;
65853;SDS011;52627;48.838;2.402;2023-12-20T04:48:26;9.20;;;1.90;;
65853;SDS011;52627;48.838;2.402;2023-12-20T04:50:53;6.30;;;1.50;;
65853;SDS011;52627;48.838;2.402;2023-12-20T04:53:20;12.60;;;1.70;;
65853;SDS011;52627;48.838;2.402;2023-12-20T04:55:47;5.80;;;1.40;;
65853;SDS011;52627;48.838;2.402;2023-12-20T04:58:13;8.50;;;1.90;;
65853;SDS011;52627;48.838;2.402;2023-12-20T05:00:40;6.60;;;1.50;;
65853;SDS011;52627;48.838;2.402;2023-12-20T05:03:07;8.10;;;1.30;;
65853;SDS011;52627;48.838;2.402;2023-12-20T05:05:34;7.40;;;1.40;;
65853;SDS011;52627;48.838;2.402;2023-12-20T05:08:01;9.00;;;1.60;;
65853;SDS011;52627;48.838;2.402;2023-12-20T05:10:28;7.00;;;1.50;;
65853;SDS011;52627;48.838;2.402;2023-12-20T05:12:55;12.00;;;2.00;;
65853;SDS011;52627;48.838;2.402;2023-12-20T05:15:22;9.60;;;2.50;;
65853;SDS011;52627;48.838;2.402;2023-12-20T05:17:48;8.20;;;1.60;;
65853;SDS011;52627;48.838;2.402;2023-12-20T05:20:16;6.30;;;1.40;;
65853;SDS011;52627;48.838;2.402;2023-12-20T05:22:43;9.00;;;1.70;;
65853;SDS011;52627;48.838;2.402;2023-12-20T05:25:11;9.40;;;1.50;;
65853;SDS011;52627;48.838;2.402;2023-12-20T05:27:38;7.90;;;1.60;;
65853;SDS011;52627;48.838;2.402;2023-12-20T05:30:05;7.80;;;1.50;;
65853;SDS011;52627;48.838;2.402;2023-12-20T05:32:33;11.10;;;1.70;;
65853;SDS011;52627;48.838;2.402;2023-12-20T05:35:00;10.90;;;2.00;;
65853;SDS011;52627;48.838;2.402;2023-12-20T05:37:27;10.10;;;2.00;;
65853;SDS011;52627;48.838;2.402;2023-12-20T05:39:54;8.00;;;1.40;;
65853;SDS011;52627;48.838;2.402;2023-12-20T05:42:21;11.10;;;1.90;;
65853;SDS011;52627;48.838;2.402;2023-12-20T05:44:47;8.90;;;1.90;;
65853;SDS011;52627;48.838;2.402;2023-12-20T05:47:17;10.10;;;2.00;;
65853;SDS011;52627;48.838;2.402;2023-12-20T05:49:44;8.20;;;1.70;;
65853;SDS011;52627;48.838;2.402;2023-12-20T05:52:11;8.40;;;2.00;;
65853;SDS011;52627;48.838;2.402;2023-12-20T05:54:38;7.50;;;1.60;;
65853;SDS011;52627;48.838;2.402;2023-12-20T05:57:06;9.80;;;2.00;;
65853;SDS011;52627;48.838;2.402;2023-12-20T05:59:32;10.10;;;2.40;;
65853;SDS011;52627;48.838;2.402;2023-12-20T06:01:59;13.00;;;2.40;;
65853;SDS011;52627;48.838;2.402;2023-12-20T06:04:26;8.30;;;1.70;;
65853;SDS011;52627;48.838;2.402;2023-12-20T06:06:53;8.40;;;2.00;;
65853;SDS011;52627;48.838;2.402;2023-12-20T06:09:20;5.90;;;1.60;;
65853;SDS011;52627;48.838;2.402;2023-12-20T06:11:46;8.30;;;2.00;;
65853;SDS011;52627;48.838;2.402;2023-12-20T06:14:13;8.00;;;1.90;;
65853;SDS011;52627;48.838;2.402;2023-12-20T06:16:40;9.00;;;2.10;;
65853;SDS011;52627;48.838;2.402;2023-12-20T06:19:07;7.60;;;1.60;;
65853;SDS011;52627;48.838;2.402;2023-12-20T06:21:34;14.10;;;2.70;;
65853;SDS011;52627;48.838;2.402;2023-12-20T06:24:01;8.40;;;2.00;;
65853;SDS011;52627;48.838;2.402;2023-12-20T06:26:27;11.30;;;2.50;;
65853;SDS011;52627;48.838;2.402;2023-12-20T06:28:54;10.30;;;2.30;;
65853;SDS011;52627;48.838;2.402;2023-12-20T06:31:21;6.90;;;1.80;;
65853;SDS011;52627;48.838;2.402;2023-12-20T06:33:48;6.20;;;1.70;;
65853;SDS011;52627;48.838;2.402;2023-12-20T06:36:23;9.10;;;1.70;;
65853;SDS011;52627;48.838;2.402;2023-12-20T06:38:56;8.90;;;1.90;;
65853;SDS011;52627;48.838;2.402;2023-12-20T06:41:34;8.30;;;1.80;;
65853;SDS011;52627;48.838;2.402;2023-12-20T06:44:00;8.60;;;1.80;;
65853;SDS011;52627;48.838;2.402;2023-12-20T06:46:27;8.80;;;1.70;;
65853;SDS011;52627;48.838;2.402;2023-12-20T06:48:54;10.60;;;2.40;;
65853;SDS011;52627;48.838;2.402;2023-12-20T06:51:21;9.80;;;1.70;;
65853;SDS011;52627;48.838;2.402;2023-12-20T06:53:52;11.80;;;2.70;;
65853;SDS011;52627;48.838;2.402;2023-12-20T06:56:19;10.20;;;1.90;;
65853;SDS011;52627;48.838;2.402;2023-12-20T06:58:46;7.60;;;2.10;;
65853;SDS011;52627;48.838;2.402;2023-12-20T07:01:13;12.30;;;2.40;;
65853;SDS011;52627;48.838;2.402;2023-12-20T07:03:42;11.20;;;1.90;;
65853;SDS011;52627;48.838;2.402;2023-12-20T07:06:09;11.60;;;2.10;;
65853;SDS011;52627;48.838;2.402;2023-12-20T07:08:35;8.30;;;2.20;;
65853;SDS011;52627;48.838;2.402;2023-12-20T07:11:02;10.20;;;2.30;;
65853;SDS011;52627;48.838;2.402;2023-12-20T07:13:30;8.50;;;1.90;;
65853;SDS011;52627;48.838;2.402;2023-12-20T07:15:57;9.50;;;1.90;;
65853;SDS011;52627;48.838;2.402;2023-12-20T07:18:24;12.20;;;2.20;;
65853;SDS011;52627;48.838;2.402;2023-12-20T07:20:50;8.20;;;2.10;;
65853;SDS011;52627;48.838;2.402;2023-12-20T07:23:17;8.10;;;2.30;;
65853;SDS011;52627;48.838;2.402;2023-12-20T07:25:46;12.80;;;1.90;;
65853;SDS011;52627;48.838;2.402;2023-12-20T07:28:13;8.50;;;1.90;;
65853;SDS011;52627;48.838;2.402;2023-12-20T07:30:39;9.80;;;2.20;;
65853;SDS011;52627;48.838;2.402;2023-12-20T07:33:06;11.90;;;2.20;;
65853;SDS011;52627;48.838;2.402;2023-12-20T07:35:35;13.50;;;2.40;;
65853;SDS011;52627;48.838;2.402;2023-12-20T07:38:03;8.80;;;2.20;;
65853;SDS011;52627;48.838;2.402;2023-12-20T07:40:30;9.00;;;2.00;;
65853;SDS011;52627;48.838;2.402;2023-12-20T07:42:57;10.60;;;2.30;;
65853;SDS011;52627;48.838;2.402;2023-12-20T07:45:24;22.80;;;3.20;;
65853;SDS011;52627;48.838;2.402;2023-12-20T07:47:51;10.60;;;2.40;;
65853;SDS011;52627;48.838;2.402;2023-12-20T07:50:18;12.00;;;2.50;;
65853;SDS011;52627;48.838;2.402;2023-12-20T07:52:45;16.60;;;3.80;;
65853;SDS011;52627;48.838;2.402;2023-12-20T07:55:12;12.90;;;2.90;;
65853;SDS011;52627;48.838;2.402;2023-12-20T07:57:39;11.50;;;2.30;;
65853;SDS011;52627;48.838;2.402;2023-12-20T08:00:06;8.30;;;2.10;;
65853;SDS011;52627;48.838;2.402;2023-12-20T08:02:33;16.10;;;3.00;;
65853;SDS011;52627;48.838;2.402;2023-12-20T08:05:00;8.40;;;2.20;;
65853;SDS011;52627;48.838;2.402;2023-12-20T08:07:27;9.00;;;2.80;;
65853;SDS011;52627;48.838;2.402;2023-12-20T08:09:54;12.40;;;2.60;;
65853;SDS011;52627;48.838;2.402;2023-12-20T08:12:22;8.50;;;1.90;;
65853;SDS011;52627;48.838;2.402;2023-12-20T08:14:49;10.80;;;2.30;;
65853;SDS011;52627;48.838;2.402;2023-12-20T08:17:16;8.90;;;2.00;;
65853;SDS011;52627;48.838;2.402;2023-12-20T08:19:44;15.00;;;2.50;;
65853;SDS011;52627;48.838;2.402;2023-12-20T08:22:11;11.30;;;2.70;;
65853;SDS011;52627;48.838;2.402;2023-12-20T08:24:38;10.20;;;3.40;;
65853;SDS011;52627;48.838;2.402;2023-12-20T08:27:05;10.10;;;3.20;;
65853;SDS011;52627;48.838;2.402;2023-12-20T08:29:32;7.80;;;2.10;;
65853;SDS011;52627;48.838;2.402;2023-12-20T08:31:59;12.50;;;2.60;;
65853;SDS011;52627;48.838;2.402;2023-12-20T08:34:25;9.80;;;3.20;;
65853;SDS011;52627;48.838;2.402;2023-12-20T08:36:53;10.50;;;2.50;;
65853;SDS011;52627;48.838;2.402;2023-12-20T08:39:20;7.90;;;2.20;;
65853;SDS011;52627;48.838;2.402;2023-12-20T08:41:47;12.30;;;2.70;;
65853;SDS011;52627;48.838;2.402;2023-12-20T08:44:13;8.30;;;2.20;;
65853;SDS011;52627;48.838;2.402;2023-12-20T08:46:40;15.60;;;2.50;;
65853;SDS011;52627;48.838;2.402;2023-12-20T08:49:07;9.80;;;3.10;;
65853;SDS011;52627;48.838;2.402;2023-12-20T08:51:36;15.50;;;2.50;;
65853;SDS011;52627;48.838;2.402;2023-12-20T08:54:06;9.50;;;2.70;;
65853;SDS011;52627;48.838;2.402;2023-12-20T08:56:34;15.10;;;2.40;;
65853;SDS011;52627;48.838;2.402;2023-12-20T08:59:01;13.20;;;3.10;;
65853;SDS011;52627;48.838;2.402;2023-12-20T09:01:28;12.60;;;3.00;;
65853;SDS011;52627;48.838;2.402;2023-12-20T09:03:55;11.90;;;2.60;;
65853;SDS011;52627;48.838;2.402;2023-12-20T09:06:22;10.90;;;3.00;;
65853;SDS011;52627;48.838;2.402;2023-12-20T09:08:48;14.30;;;3.00;;
65853;SDS011;52627;48.838;2.402;2023-12-20T09:11:15;16.80;;;3.80;;
65853;SDS011;52627;48.838;2.402;2023-12-20T09:13:44;9.20;;;2.50;;
65853;SDS011;52627;48.838;2.402;2023-12-20T09:16:11;15.90;;;3.40;;
65853;SDS011;52627;48.838;2.402;2023-12-20T09:18:39;15.40;;;3.30;;
65853;SDS011;52627;48.838;2.402;2023-12-20T09:21:06;13.80;;;3.00;;
65853;SDS011;52627;48.838;2.402;2023-12-20T09:23:33;11.60;;;3.10;;
65853;SDS011;52627;48.838;2.402;2023-12-20T09:25:59;13.00;;;3.20;;
65853;SDS011;52627;48.838;2.402;2023-12-20T09:28:26;15.30;;;3.30;;
65853;SDS011;52627;48.838;2.402;2023-12-20T09:30:53;14.10;;;2.90;;
65853;SDS011;52627;48.838;2.402;2023-12-20T09:33:20;12.20;;;2.90;;
65853;SDS011;52627;48.838;2.402;2023-12-20T09:35:47;10.50;;;2.50;;
65853;SDS011;52627;48.838;2.402;2023-12-20T09:38:14;8.50;;;2.50;;
65853;SDS011;52627;48.838;2.402;2023-12-20T09:40:44;11.70;;;2.90;;
65853;SDS011;52627;48.838;2.402;2023-12-20T09:43:14;14.80;;;2.90;;
65853;SDS011;52627;48.838;2.402;2023-12-20T09:48:13;8.70;;;2.60;;
65853;SDS011;52627;48.838;2.402;2023-12-20T09:50:43;12.70;;;3.00;;
65853;SDS011;52627;48.838;2.402;2023-12-20T09:53:17;10.90;;;2.60;;
65853;SDS011;52627;48.838;2.402;2023-12-20T09:55:46;10.80;;;2.80;;
65853;SDS011;52627;48.838;2.402;2023-12-20T09:58:12;12.60;;;3.00;;
65853;SDS011;52627;48.838;2.402;2023-12-20T10:00:39;10.90;;;2.70;;
65853;SDS011;52627;48.838;2.402;2023-12-20T10:03:06;18.30;;;3.50;;
65853;SDS011;52627;48.838;2.402;2023-12-20T10:05:34;14.10;;;3.20;;
65853;SDS011;52627;48.838;2.402;2023-12-20T10:08:02;16.40;;;3.00;;
65853;SDS011;52627;48.838;2.402;2023-12-20T10:10:30;12.00;;;2.60;;
65853;SDS011;52627;48.838;2.402;2023-12-20T10:13:12;12.10;;;2.40;;
65853;SDS011;52627;48.838;2.402;2023-12-20T10:15:40;17.40;;;2.80;;
65853;SDS011;52627;48.838;2.402;2023-12-20T10:18:07;13.80;;;2.90;;
65853;SDS011;52627;48.838;2.402;2023-12-20T10:20:34;12.20;;;2.40;;
65853;SDS011;52627;48.838;2.402;2023-12-20T10:23:01;13.50;;;3.30;;
65853;SDS011;52627;48.838;2.402;2023-12-20T10:25:29;12.40;;;2.90;;
65853;SDS011;52627;48.838;2.402;2023-12-20T10:28:13;9.10;;;2.80;;
65853;SDS011;52627;48.838;2.402;2023-12-20T10:30:41;12.20;;;2.80;;
65853;SDS011;52627;48.838;2.402;2023-12-20T10:33:09;14.40;;;2.70;;
65853;SDS011;52627;48.838;2.402;2023-12-20T10:35:37;9.60;;;2.50;;
65853;SDS011;52627;48.838;2.402;2023-12-20T10:38:08;8.60;;;2.10;;
65853;SDS011;52627;48.838;2.402;2023-12-20T10:40:36;12.30;;;2.30;;
65853;SDS011;52627;48.838;2.402;2023-12-20T10:43:04;10.80;;;2.50;;
65853;SDS011;52627;48.838;2.402;2023-12-20T10:45:31;7.80;;;2.10;;
65853;SDS011;52627;48.838;2.402;2023-12-20T10:47:59;8.00;;;2.00;;
65853;SDS011;52627;48.838;2.402;2023-12-20T10:50:27;15.40;;;2.60;;
65853;SDS011;52627;48.838;2.402;2023-12-20T10:52:55;11.20;;;2.60;;
65853;SDS011;52627;48.838;2.402;2023-12-20T10:55:23;12.10;;;2.30;;
65853;SDS011;52627;48.838;2.402;2023-12-20T10:57:51;8.40;;;2.70;;
65853;SDS011;52627;48.838;2.402;2023-12-20T11:00:21;12.20;;;3.10;;
65853;SDS011;52627;48.838;2.402;2023-12-20T11:02:49;12.00;;;3.20;;
65853;SDS011;52627;48.838;2.402;2023-12-20T11:11:07;11.60;;;2.40;;
65853;SDS011;52627;48.838;2.402;2023-12-20T11:14:00;10.70;;;2.60;;
65853;SDS011;52627;48.838;2.402;2023-12-20T11:16:28;8.70;;;2.40;;
65853;SDS011;52627;48.838;2.402;2023-12-20T11:19:08;8.40;;;2.20;;
65853;SDS011;52627;48.838;2.402;2023-12-20T11:21:35;13.40;;;2.90;;
65853;SDS011;52627;48.838;2.402;2023-12-20T11:24:03;11.50;;;2.60;;
65853;SDS011;52627;48.838;2.402;2023-12-20T11:26:30;9.20;;;2.70;;
65853;SDS011;52627;48.838;2.402;2023-12-20T11:29:32;12.70;;;2.60;;
65853;SDS011;52627;48.838;2.402;2023-12-20T11:32:02;14.90;;;3.30;;
65853;SDS011;52627;48.838;2.402;2023-12-20T11:34:32;9.70;;;2.80;;
65853;SDS011;52627;48.838;2.402;2023-12-20T11:37:02;11.10;;;3.30;;
65853;SDS011;52627;48.838;2.402;2023-12-20T11:39:30;10.70;;;2.70;;
65853;SDS011;52627;48.838;2.402;2023-12-20T11:41:57;10.50;;;3.20;;
65853;SDS011;52627;48.838;2.402;2023-12-20T11:44:31;10.40;;;2.30;;
65853;SDS011;52627;48.838;2.402;2023-12-20T11:46:58;10.80;;;2.70;;
65853;SDS011;52627;48.838;2.402;2023-12-20T11:49:25;10.00;;;3.20;;
65853;SDS011;52627;48.838;2.402;2023-12-20T11:51:52;11.70;;;2.70;;
65853;SDS011;52627;48.838;2.402;2023-12-20T11:54:19;9.50;;;2.50;;
65853;SDS011;52627;48.838;2.402;2023-12-20T11:56:47;12.40;;;2.70;;
65853;SDS011;52627;48.838;2.402;2023-12-20T11:59:14;14.60;;;3.50;;
65853;SDS011;52627;48.838;2.402;2023-12-20T12:01:50;9.90;;;2.50;;
65853;SDS011;52627;48.838;2.402;2023-12-20T12:04:18;12.90;;;2.50;;
65853;SDS011;52627;48.838;2.402;2023-12-20T12:06:45;9.40;;;2.60;;
65853;SDS011;52627;48.838;2.402;2023-12-20T12:09:13;9.50;;;2.50;;
65853;SDS011;52627;48.838;2.402;2023-12-20T12:11:40;8.60;;;2.70;;
65853;SDS011;52627;48.838;2.402;2023-12-20T12:14:07;13.30;;;2.60;;
65853;SDS011;52627;48.838;2.402;2023-12-20T12:16:34;12.30;;;2.60;;
65853;SDS011;52627;48.838;2.402;2023-12-20T12:19:02;13.80;;;2.60;;
65853;SDS011;52627;48.838;2.402;2023-12-20T12:21:29;10.30;;;2.20;;
65853;SDS011;52627;48.838;2.402;2023-12-20T12:24:07;14.10;;;3.20;;
65853;SDS011;52627;48.838;2.402;2023-12-20T12:26:35;11.40;;;2.50;;
65853;SDS011;52627;48.838;2.402;2023-12-20T12:29:01;13.00;;;2.30;;
65853;SDS011;52627;48.838;2.402;2023-12-20T12:31:30;11.00;;;2.80;;
65853;SDS011;52627;48.838;2.402;2023-12-20T12:33:56;11.00;;;3.00;;
65853;SDS011;52627;48.838;2.402;2023-12-20T12:36:24;14.80;;;2.90;;
65853;SDS011;52627;48.838;2.402;2023-12-20T12:38:51;11.50;;;2.20;;
65853;SDS011;52627;48.838;2.402;2023-12-20T12:41:18;10.30;;;2.20;;
65853;SDS011;52627;48.838;2.402;2023-12-20T12:43:44;11.80;;;2.40;;
65853;SDS011;52627;48.838;2.402;2023-12-20T12:46:11;9.60;;;2.20;;
65853;SDS011;52627;48.838;2.402;2023-12-20T12:48:38;11.90;;;2.70;;
65853;SDS011;52627;48.838;2.402;2023-12-20T12:51:06;12.50;;;2.80;;
65853;SDS011;52627;48.838;2.402;2023-12-20T12:53:34;12.50;;;2.50;;
65853;SDS011;52627;48.838;2.402;2023-12-20T12:56:01;9.30;;;2.00;;
65853;SDS011;52627;48.838;2.402;2023-12-20T12:58:28;28.40;;;3.80;;
65853;SDS011;52627;48.838;2.402;2023-12-20T13:00:54;10.40;;;2.60;;
65853;SDS011;52627;48.838;2.402;2023-12-20T13:03:22;9.10;;;2.50;;
65853;SDS011;52627;48.838;2.402;2023-12-20T13:05:48;10.90;;;2.40;;
65853;SDS011;52627;48.838;2.402;2023-12-20T13:08:16;8.20;;;2.50;;
65853;SDS011;52627;48.838;2.402;2023-12-20T13:10:43;12.50;;;3.70;;
65853;SDS011;52627;48.838;2.402;2023-12-20T13:13:09;12.90;;;3.10;;
65853;SDS011;52627;48.838;2.402;2023-12-20T13:15:36;10.30;;;2.80;;
65853;SDS011;52627;48.838;2.402;2023-12-20T13:18:03;15.80;;;3.20;;
65853;SDS011;52627;48.838;2.402;2023-12-20T13:20:32;12.00;;;2.80;;
65853;SDS011;52627;48.838;2.402;2023-12-20T13:22:59;10.80;;;2.40;;
65853;SDS011;52627;48.838;2.402;2023-12-20T13:25:27;13.90;;;3.40;;
65853;SDS011;52627;48.838;2.402;2023-12-20T13:27:53;11.20;;;2.50;;
65853;SDS011;52627;48.838;2.402;2023-12-20T13:30:20;9.90;;;2.50;;
65853;SDS011;52627;48.838;2.402;2023-12-20T13:32:47;15.40;;;2.60;;
65853;SDS011;52627;48.838;2.402;2023-12-20T13:35:15;11.20;;;2.90;;
65853;SDS011;52627;48.838;2.402;2023-12-20T13:37:42;8.80;;;2.40;;
65853;SDS011;52627;48.838;2.402;2023-12-20T13:40:11;15.00;;;2.80;;
65853;SDS011;52627;48.838;2.402;2023-12-20T13:42:39;13.70;;;2.60;;
65853;SDS011;52627;48.838;2.402;2023-12-20T13:45:07;10.80;;;2.50;;
65853;SDS011;52627;48.838;2.402;2023-12-20T13:47:35;10.40;;;2.70;;
65853;SDS011;52627;48.838;2.402;2023-12-20T13:50:03;16.50;;;3.50;;
65853;SDS011;52627;48.838;2.402;2023-12-20T13:52:30;14.00;;;3.30;;
65853;SDS011;52627;48.838;2.402;2023-12-20T13:54:57;12.90;;;3.20;;
65853;SDS011;52627;48.838;2.402;2023-12-20T13:57:24;10.20;;;2.40;;
65853;SDS011;52627;48.838;2.402;2023-12-20T14:00:10;12.30;;;2.50;;
65853;SDS011;52627;48.838;2.402;2023-12-20T14:02:41;11.40;;;2.80;;
65853;SDS011;52627;48.838;2.402;2023-12-20T14:05:09;11.10;;;2.60;;
65853;SDS011;52627;48.838;2.402;2023-12-20T14:07:37;10.10;;;2.60;;
65853;SDS011;52627;48.838;2.402;2023-12-20T14:10:04;8.30;;;2.00;;
65853;SDS011;52627;48.838;2.402;2023-12-20T14:12:32;9.50;;;2.00;;
65853;SDS011;52627;48.838;2.402;2023-12-20T14:15:02;9.40;;;2.50;;
65853;SDS011;52627;48.838;2.402;2023-12-20T14:17:29;11.00;;;2.20;;
65853;SDS011;52627;48.838;2.402;2023-12-20T14:19:58;7.60;;;2.10;;
65853;SDS011;52627;48.838;2.402;2023-12-20T14:22:25;8.10;;;1.80;;
65853;SDS011;52627;48.838;2.402;2023-12-20T14:24:52;9.40;;;2.00;;
65853;SDS011;52627;48.838;2.402;2023-12-20T14:27:19;6.80;;;1.70;;
65853;SDS011;52627;48.838;2.402;2023-12-20T14:29:48;8.30;;;2.10;;
65853;SDS011;52627;48.838;2.402;2023-12-20T14:32:15;8.80;;;2.00;;
65853;SDS011;52627;48.838;2.402;2023-12-20T14:34:42;11.50;;;1.80;;
65853;SDS011;52627;48.838;2.402;2023-12-20T14:37:09;8.90;;;1.60;;
65853;SDS011;52627;48.838;2.402;2023-12-20T14:39:36;9.90;;;1.90;;
65853;SDS011;52627;48.838;2.402;2023-12-20T14:42:08;8.20;;;1.60;;
65853;SDS011;52627;48.838;2.402;2023-12-20T14:44:40;7.10;;;1.80;;
65853;SDS011;52627;48.838;2.402;2023-12-20T14:47:07;7.70;;;1.90;;
65853;SDS011;52627;48.838;2.402;2023-12-20T14:49:34;9.70;;;2.20;;
65853;SDS011;52627;48.838;2.402;2023-12-20T14:52:02;8.00;;;1.90;;
65853;SDS011;52627;48.838;2.402;2023-12-20T14:54:29;8.50;;;1.70;;